createdAt,value
2023-04-02T00:00:26.380Z,99901.34
2023-04-02T00:04:30.175Z,99917.66
2023-04-02T00:08:41.193Z,99915.13
2023-04-02T00:13:00.917Z,99922.66
2023-04-02T00:17:06.971Z,99936.09
2023-04-02T00:21:15.446Z,99930.00
2023-04-02T00:25:18.699Z,99946.94
2023-04-02T00:29:23.112Z,99950.28
2023-04-02T00:33:29.776Z,99952.38
2023-04-02T00:37:39.338Z,99951.09
2023-04-02T00:41:46.695Z,99957.19
2023-04-02T00:45:57.222Z,99962.00
2023-04-02T00:50:07.182Z,99963.66
2023-04-02T00:54:15.904Z,99976.00
2023-04-02T00:58:33.923Z,99980.81
2023-04-02T01:02:40.858Z,99979.06
2023-04-02T01:06:46.157Z,99997.06
2023-04-02T01:11:04.541Z,99991.00
2023-04-02T01:15:13.989Z,100000.41
2023-04-02T01:19:58.594Z,100000.34
2023-04-02T01:24:06.255Z,100011.44
2023-04-02T01:28:19.652Z,100004.97
2023-04-02T01:32:26.979Z,100031.75
2023-04-02T01:36:40.838Z,100033.13
2023-04-02T01:40:49.576Z,100040.91
2023-04-02T01:44:54.672Z,100051.94
2023-04-02T01:49:03.599Z,100053.34
2023-04-02T01:53:10.858Z,100069.25
2023-04-02T01:57:14.879Z,100066.28
2023-04-02T02:01:21.893Z,100071.47
2023-04-02T02:05:29.484Z,100079.41
2023-04-02T02:09:36.664Z,100092.34
2023-04-02T02:13:42.119Z,100095.44
2023-04-02T02:17:46.012Z,100100.22
2023-04-02T02:21:52.567Z,100118.59
2023-04-02T02:25:56.168Z,100121.31
2023-04-02T02:30:05.610Z,100124.03
2023-04-02T02:34:17.655Z,100127.91
2023-04-02T02:38:30.682Z,100143.81
2023-04-02T02:42:43.485Z,100154.91
2023-04-02T02:46:52.686Z,100158.41
2023-04-02T02:50:57.452Z,100177.59
2023-04-02T02:55:06.520Z,100180.13
2023-04-02T02:59:22.482Z,100184.28
2023-04-02T03:03:30.188Z,100192.72
2023-04-02T03:07:37.436Z,100193.50
2023-04-02T03:11:48.551Z,100207.09
2023-04-02T03:16:03.488Z,100212.91
2023-04-02T03:20:16.135Z,100221.31
2023-04-02T03:24:30.452Z,100231.72
2023-04-02T03:28:41.256Z,100244.25
2023-04-02T03:32:46.290Z,100252.22
2023-04-02T03:36:57.892Z,100259.34
2023-04-02T03:41:06.452Z,100266.44
2023-04-02T03:45:19.540Z,100271.34
2023-04-02T03:49:30.521Z,100288.75
2023-04-02T03:53:34.269Z,100298.59
2023-04-02T03:57:43.438Z,100309.16
2023-04-02T04:01:57.118Z,100310.19
2023-04-02T04:06:03.408Z,100316.63
2023-04-02T04:10:08.799Z,100332.94
2023-04-02T04:14:18.546Z,100347.16
2023-04-02T04:18:35.105Z,100345.47
2023-04-02T04:22:42.932Z,100348.94
2023-04-02T04:26:56.137Z,100371.03
2023-04-02T04:31:04.392Z,100365.88
2023-04-02T04:35:24.980Z,100386.38
2023-04-02T04:39:38.003Z,100384.00
2023-04-02T04:43:47.860Z,100386.06
2023-04-02T04:47:58.626Z,100398.63
2023-04-02T04:52:16.208Z,100404.78
2023-04-02T04:56:25.794Z,100403.38
2023-04-02T05:00:43.244Z,100422.84
2023-04-02T05:04:51.626Z,100433.91
2023-04-02T05:09:02.420Z,100448.88
2023-04-02T05:13:12.388Z,100455.97
2023-04-02T05:17:22.918Z,100480.41
2023-04-02T05:21:33.303Z,100475.72
2023-04-02T05:25:53.182Z,100495.47
2023-04-02T05:30:34.101Z,100509.47
2023-04-02T05:34:40.509Z,100519.13
2023-04-02T05:38:47.706Z,100527.78
2023-04-02T05:42:58.672Z,100533.56
2023-04-02T05:47:07.380Z,100542.72
2023-04-02T05:51:17.361Z,100544.41
2023-04-02T05:55:38.617Z,100558.66
2023-04-02T05:59:46.981Z,100569.84
2023-04-02T06:04:01.265Z,100568.16
2023-04-02T06:08:13.105Z,100572.63
2023-04-02T06:12:26.542Z,100588.56
2023-04-02T06:16:34.556Z,100599.94
2023-04-02T06:20:39.184Z,100618.28
2023-04-02T06:24:42.825Z,100627.28
2023-04-02T06:28:48.592Z,100635.22
2023-04-02T06:32:55.544Z,100638.13
2023-04-02T06:37:01.776Z,100642.88
2023-04-02T06:41:14.479Z,100650.16
2023-04-02T06:45:42.223Z,100654.75
2023-04-02T06:50:20.282Z,100668.00
2023-04-02T06:54:24.677Z,100677.47
2023-04-02T06:58:33.014Z,100688.31
2023-04-02T07:02:40.921Z,100697.81
2023-04-02T07:06:48.657Z,100705.41
2023-04-02T07:10:53.035Z,100716.44
2023-04-02T07:14:56.365Z,100736.75
2023-04-02T07:19:00.610Z,100744.91
2023-04-02T07:23:09.334Z,100752.34
2023-04-02T07:27:14.259Z,100764.91
2023-04-02T07:31:19.127Z,100759.97
2023-04-02T07:35:22.824Z,100770.31
2023-04-02T07:39:27.238Z,100776.44
2023-04-02T07:43:31.260Z,100780.81
2023-04-02T07:47:34.765Z,100786.25
2023-04-02T07:51:38.115Z,100794.72
2023-04-02T07:55:42.809Z,100787.94
2023-04-02T07:59:46.396Z,100796.22
2023-04-02T08:03:50.025Z,100807.75
2023-04-02T08:07:56.164Z,100806.59
2023-04-02T08:12:00.660Z,100820.63
2023-04-02T08:16:05.730Z,100817.44
2023-04-02T08:20:12.005Z,100823.53
2023-04-02T08:24:15.070Z,100833.34
2023-04-02T08:28:19.590Z,100834.38
2023-04-02T08:32:24.195Z,100831.47
2023-04-02T08:36:31.616Z,100840.16
2023-04-02T08:40:38.366Z,100845.91
2023-04-02T08:44:53.498Z,100850.81
2023-04-02T08:49:00.754Z,100867.06
2023-04-02T08:53:09.431Z,100868.25
2023-04-02T08:57:23.041Z,100888.44
2023-04-02T09:01:38.416Z,100892.84
2023-04-02T09:05:44.390Z,100895.03
2023-04-02T09:09:49.887Z,100901.81
2023-04-02T09:13:57.297Z,100903.84
2023-04-02T09:18:13.357Z,100912.00
2023-04-02T09:22:21.889Z,100918.28
2023-04-02T09:26:28.834Z,100927.59
2023-04-02T09:30:43.929Z,100937.09
2023-04-02T09:34:48.634Z,100941.16
2023-04-02T09:39:01.592Z,100954.72
2023-04-02T09:43:11.905Z,100944.03
2023-04-02T09:47:27.469Z,100955.75
2023-04-02T09:51:34.437Z,100955.59
2023-04-02T09:55:38.801Z,100961.19
2023-04-02T09:59:42.209Z,100971.88
2023-04-02T10:03:46.599Z,100987.63
2023-04-02T10:07:53.179Z,100986.09
2023-04-02T10:11:57.498Z,100994.59
2023-04-02T10:16:05.061Z,101002.53
2023-04-02T10:20:18.945Z,101006.97
2023-04-02T10:24:28.574Z,101016.38
2023-04-02T10:28:45.187Z,101026.97
2023-04-02T10:32:56.760Z,101024.81
2023-04-02T10:37:08.459Z,101045.16
2023-04-02T10:41:28.027Z,101055.81
2023-04-02T10:45:41.295Z,101064.16
2023-04-02T10:49:55.821Z,101066.00
2023-04-02T10:54:07.437Z,101068.72
2023-04-02T10:58:21.875Z,101070.41
2023-04-02T11:02:37.551Z,101069.03
2023-04-02T11:06:47.447Z,101073.63
2023-04-02T11:10:57.090Z,101082.31
2023-04-02T11:15:02.242Z,101090.38
2023-04-02T11:19:24.631Z,101079.22
2023-04-02T11:23:36.221Z,101094.53
2023-04-02T11:27:39.422Z,101090.47
2023-04-02T11:31:45.898Z,101096.94
2023-04-02T11:35:49.099Z,101103.38
2023-04-02T11:39:57.297Z,101113.56
2023-04-02T11:44:03.483Z,101129.88
2023-04-02T11:48:29.408Z,101128.19
2023-04-02T11:52:36.866Z,101143.94
2023-04-02T11:56:48.297Z,101142.59
2023-04-02T12:01:05.073Z,101150.59
2023-04-02T12:05:20.676Z,101164.66
2023-04-02T12:09:26.034Z,101166.03
2023-04-02T12:13:49.665Z,101173.69
2023-04-02T12:17:53.108Z,101168.59
2023-04-02T12:22:00.607Z,101182.53
2023-04-02T12:26:07.557Z,101177.19
2023-04-02T12:30:17.977Z,101181.09
2023-04-02T12:34:24.064Z,101182.72
2023-04-02T12:38:31.024Z,101191.59
2023-04-02T12:42:37.087Z,101197.38
2023-04-02T12:46:41.396Z,101193.91
2023-04-02T12:50:45.773Z,101204.56
2023-04-02T12:54:52.840Z,101203.50
2023-04-02T12:58:58.063Z,101213.31
2023-04-02T13:03:14.729Z,101219.50
2023-04-02T13:07:19.466Z,101228.34
2023-04-02T13:11:24.638Z,101230.00
2023-04-02T13:15:32.248Z,101223.56
2023-04-02T13:19:35.863Z,101232.72
2023-04-02T13:23:38.885Z,101237.97
2023-04-02T13:27:43.420Z,101236.88
2023-04-02T13:31:46.561Z,101243.53
2023-04-02T13:35:49.977Z,101249.41
2023-04-02T13:39:53.054Z,101248.94
2023-04-02T13:44:00.814Z,101263.38
2023-04-02T13:48:04.154Z,101263.69
2023-04-02T13:52:15.191Z,101268.81
2023-04-02T13:56:19.545Z,101257.88
2023-04-02T14:00:24.663Z,101260.94
2023-04-02T14:04:32.339Z,101272.19
2023-04-02T14:08:47.563Z,101276.38
2023-04-02T14:13:04.468Z,101289.88
2023-04-02T14:17:19.814Z,101287.84
2023-04-02T14:21:32.239Z,101293.25
2023-04-02T14:25:44.273Z,101301.09
2023-04-02T14:29:52.800Z,101307.59
2023-04-02T14:34:04.645Z,101311.81
2023-04-02T14:38:17.562Z,101317.81
2023-04-02T14:42:28.265Z,101326.31
2023-04-02T14:46:35.531Z,101325.47
2023-04-02T14:50:43.912Z,101323.78
2023-04-02T14:54:52.382Z,101331.78
2023-04-02T14:59:05.560Z,101329.38
2023-04-02T15:03:16.353Z,101341.97
2023-04-02T15:07:25.540Z,101348.09
2023-04-02T15:11:33.700Z,101341.63
2023-04-02T15:15:43.740Z,101344.38
2023-04-02T15:19:48.073Z,101351.84
2023-04-02T15:24:01.638Z,101342.13
2023-04-02T15:28:23.786Z,101341.16
2023-04-02T15:32:36.701Z,101358.09
2023-04-02T15:36:56.418Z,101356.63
2023-04-02T15:41:05.268Z,101354.16
2023-04-02T15:45:23.279Z,101365.22
2023-04-02T15:49:42.724Z,101371.69
2023-04-02T15:53:58.176Z,101380.97
2023-04-02T15:58:22.241Z,101375.97
2023-04-02T16:02:41.501Z,101372.38
2023-04-02T16:06:57.739Z,101384.16
2023-04-02T16:11:01.105Z,101383.59
2023-04-02T16:15:15.908Z,101386.94
2023-04-02T16:19:27.092Z,101388.59
2023-04-02T16:23:35.093Z,101392.38
2023-04-02T16:27:43.137Z,101399.59
2023-04-02T16:31:53.900Z,101405.44
2023-04-02T16:36:08.576Z,101408.88
2023-04-02T16:40:23.220Z,101407.41
2023-04-02T16:44:37.139Z,101416.78
2023-04-02T16:48:50.948Z,101427.59
2023-04-02T16:53:03.295Z,101428.69
2023-04-02T16:57:19.709Z,101433.84
2023-04-02T17:01:29.606Z,101443.88
2023-04-02T17:05:39.285Z,101442.03
2023-04-02T17:09:50.110Z,101447.88
2023-04-02T17:14:06.327Z,101456.19
2023-04-02T17:18:17.337Z,101464.50
2023-04-02T17:22:23.770Z,101473.03
2023-04-02T17:26:30.566Z,101475.31
2023-04-02T17:30:39.151Z,101478.03
2023-04-02T17:34:42.474Z,101490.19
2023-04-02T17:38:58.501Z,101505.13
2023-04-02T17:43:11.554Z,101506.94
2023-04-02T17:47:21.782Z,101505.91
2023-04-02T17:51:33.970Z,101516.97
2023-04-02T17:55:49.449Z,101523.94
2023-04-02T18:00:02.214Z,101524.19
2023-04-02T18:04:28.105Z,101536.03
2023-04-02T18:08:42.184Z,101542.63
2023-04-02T18:12:57.743Z,101551.34
2023-04-02T18:17:13.213Z,101553.69
2023-04-02T18:21:24.903Z,101562.22
2023-04-02T18:25:48.056Z,101560.66
2023-04-02T18:30:00.367Z,101579.56
2023-04-02T18:34:35.512Z,101588.72
2023-04-02T18:38:45.808Z,101589.03
2023-04-02T18:43:00.735Z,101594.47
2023-04-02T18:47:15.587Z,101597.72
2023-04-02T18:51:23.715Z,101602.59
2023-04-02T18:55:30.923Z,101613.25
2023-04-02T18:59:39.799Z,101622.69
2023-04-02T19:03:51.072Z,101625.78
2023-04-02T19:08:04.022Z,101627.19
2023-04-02T19:12:20.069Z,101640.72
2023-04-02T19:16:50.625Z,101644.59
2023-04-02T19:21:17.639Z,101650.88
2023-04-02T19:25:37.493Z,101656.59
2023-04-02T19:29:53.272Z,101670.50
2023-04-02T19:34:03.769Z,101672.34
2023-04-02T19:38:17.149Z,101669.53
2023-04-02T19:42:34.852Z,101679.56
2023-04-02T19:46:39.585Z,101683.59
2023-04-02T19:50:43.418Z,101685.50
2023-04-02T19:54:48.405Z,101696.94
2023-04-02T19:58:51.708Z,101702.88
2023-04-02T20:02:55.016Z,101714.16
2023-04-02T20:06:58.606Z,101712.44
2023-04-02T20:11:04.252Z,101717.31
2023-04-02T20:15:08.930Z,101716.47
2023-04-02T20:19:12.339Z,101719.03
2023-04-02T20:23:18.698Z,101730.13
2023-04-02T20:27:23.868Z,101722.88
2023-04-02T20:31:27.654Z,101730.28
2023-04-02T20:35:36.946Z,101724.13
2023-04-02T20:39:41.591Z,101723.13
2023-04-02T20:43:46.337Z,101739.38
2023-04-02T20:47:49.451Z,101735.13
2023-04-02T20:51:54.616Z,101736.53
2023-04-02T20:56:04.268Z,101745.03
2023-04-02T21:00:12.260Z,101745.41
2023-04-02T21:04:15.525Z,101760.84
2023-04-02T21:08:21.292Z,101766.34
2023-04-02T21:12:28.218Z,101778.34
2023-04-02T21:16:34.493Z,101781.47
2023-04-02T21:20:37.566Z,101791.56
2023-04-02T21:24:42.867Z,101785.63
2023-04-02T21:28:46.829Z,101784.97
2023-04-02T21:32:51.614Z,101793.44
2023-04-02T21:36:56.674Z,101800.41
2023-04-02T21:41:11.244Z,101807.81
2023-04-02T21:45:15.458Z,101817.94
2023-04-02T21:49:22.832Z,101823.53
2023-04-02T21:53:27.331Z,101819.72
2023-04-02T21:57:30.485Z,101822.22
2023-04-02T22:01:36.098Z,101819.91
2023-04-02T22:05:41.247Z,101827.66
2023-04-02T22:09:44.407Z,101831.81
2023-04-02T22:13:49.675Z,101831.56
2023-04-02T22:17:53.060Z,101831.81
2023-04-02T22:21:58.721Z,101838.91
2023-04-02T22:26:02.384Z,101844.81
2023-04-02T22:30:07.527Z,101849.81
2023-04-02T22:34:11.064Z,101851.31
2023-04-02T22:38:16.003Z,101856.34
2023-04-02T22:42:20.420Z,101861.00
2023-04-02T22:46:24.444Z,101869.31
2023-04-02T22:50:27.724Z,101880.56
2023-04-02T22:54:32.260Z,101872.00
2023-04-02T22:58:35.955Z,101873.47
2023-04-02T23:02:39.544Z,101880.44
2023-04-02T23:06:42.829Z,101881.75
2023-04-02T23:10:47.635Z,101881.75
2023-04-02T23:14:51.215Z,101888.13
2023-04-02T23:18:55.950Z,101898.69
2023-04-02T23:22:59.163Z,101893.25
2023-04-02T23:27:03.744Z,101887.00
2023-04-02T23:31:09.099Z,101888.31
2023-04-02T23:35:12.626Z,101890.59
2023-04-02T23:39:16.134Z,101889.56
2023-04-02T23:43:20.813Z,101890.13
2023-04-02T23:47:24.310Z,101888.91
2023-04-02T23:51:29.082Z,101882.31
2023-04-02T23:55:32.391Z,101886.84
2023-04-02T23:59:37.210Z,101881.09
